<?xml version='1.0' encoding='UTF-8'?>
<gpx version="1.1" creator="https://www.komoot.de" xmlns="http://www.topografix.com/GPX/1/1" xmlns:xsi="http://www.w3.org/2001/XMLSchema-instance" xsi:schemaLocation="http://www.topografix.com/GPX/1/1 http://www.topografix.com/GPX/1/1/gpx.xsd">
  <metadata>
    <name>Neuilly-Colombes-Beauchamp</name>
    <author>
      <link href="https://www.komoot.de">
        <text>komoot</text>
        <type>text/html</type>
      </link>
    </author>
  </metadata>
  <trk>
    <name>Neuilly-Colombes-Beauchamp</name>
    <trkseg>
      <trkpt lat="48.884210" lon="2.270255">
        <ele>39.330946</ele>
        <time>2025-03-21T13:57:24.877Z</time>
      </trkpt>
      <trkpt lat="48.884296" lon="2.269881">
        <ele>39.330946</ele>
        <time>2025-03-21T13:57:27.964Z</time>
      </trkpt>
      <trkpt lat="48.884266" lon="2.269802">
        <ele>39.330946</ele>
        <time>2025-03-21T13:57:28.681Z</time>
      </trkpt>
      <trkpt lat="48.884289" lon="2.269697">
        <ele>39.330946</ele>
        <time>2025-03-21T13:57:29.568Z</time>
      </trkpt>
      <trkpt lat="48.884371" lon="2.269759">
        <ele>39.330946</ele>
        <time>2025-03-21T13:57:30.654Z</time>
      </trkpt>
      <trkpt lat="48.885106" lon="2.270313">
        <ele>39.264709</ele>
        <time>2025-03-21T13:57:41.269Z</time>
      </trkpt>
      <trkpt lat="48.885171" lon="2.270363">
        <ele>39.252822</ele>
        <time>2025-03-21T13:57:42.282Z</time>
      </trkpt>
      <trkpt lat="48.885457" lon="2.269824">
        <ele>39.178499</ele>
        <time>2025-03-21T13:57:49.035Z</time>
      </trkpt>
      <trkpt lat="48.885688" lon="2.269388">
        <ele>39.118415</ele>
        <time>2025-03-21T13:57:54.824Z</time>
      </trkpt>
      <trkpt lat="48.885949" lon="2.268894">
        <ele>39.050413</ele>
        <time>2025-03-21T13:58:01.522Z</time>
      </trkpt>
      <trkpt lat="48.885991" lon="2.268944">
        <ele>39.041709</ele>
        <time>2025-03-21T13:58:05.221Z</time>
      </trkpt>
      <trkpt lat="48.886016" lon="2.268974">
        <ele>39.034278</ele>
        <time>2025-03-21T13:58:07.420Z</time>
      </trkpt>
      <trkpt lat="48.886025" lon="2.268956">
        <ele>39.025900</ele>
        <time>2025-03-21T13:58:08.464Z</time>
      </trkpt>
      <trkpt lat="48.886046" lon="2.268916">
        <ele>39.006936</ele>
        <time>2025-03-21T13:58:10.804Z</time>
      </trkpt>
      <trkpt lat="48.887113" lon="2.270210">
        <ele>38.237984</ele>
        <time>2025-03-21T13:58:28.572Z</time>
      </trkpt>
      <trkpt lat="48.887430" lon="2.270601">
        <ele>38.005118</ele>
        <time>2025-03-21T13:58:33.509Z</time>
      </trkpt>
      <trkpt lat="48.887643" lon="2.270862">
        <ele>37.823078</ele>
        <time>2025-03-21T13:58:36.917Z</time>
      </trkpt>
      <trkpt lat="48.887895" lon="2.271171">
        <ele>37.607648</ele>
        <time>2025-03-21T13:58:41.123Z</time>
      </trkpt>
      <trkpt lat="48.888217" lon="2.271571">
        <ele>37.330952</ele>
        <time>2025-03-21T13:58:46.705Z</time>
      </trkpt>
      <trkpt lat="48.888926" lon="2.272423">
        <ele>36.706141</ele>
        <time>2025-03-21T13:58:58.334Z</time>
      </trkpt>
      <trkpt lat="48.889283" lon="2.272850">
        <ele>36.331102</ele>
        <time>2025-03-21T13:59:04.407Z</time>
      </trkpt>
      <trkpt lat="48.889344" lon="2.272921">
        <ele>36.267673</ele>
        <time>2025-03-21T13:59:05.390Z</time>
      </trkpt>
      <trkpt lat="48.889410" lon="2.272999">
        <ele>36.198653</ele>
        <time>2025-03-21T13:59:06.463Z</time>
      </trkpt>
      <trkpt lat="48.889460" lon="2.272894">
        <ele>36.128263</ele>
        <time>2025-03-21T13:59:07.533Z</time>
      </trkpt>
      <trkpt lat="48.889503" lon="2.272811">
        <ele>36.070890</ele>
        <time>2025-03-21T13:59:08.387Z</time>
      </trkpt>
      <trkpt lat="48.889603" lon="2.272768">
        <ele>35.985077</ele>
        <time>2025-03-21T13:59:09.667Z</time>
      </trkpt>
      <trkpt lat="48.890672" lon="2.270707">
        <ele>34.335717</ele>
        <time>2025-03-21T13:59:30.463Z</time>
      </trkpt>
      <trkpt lat="48.890745" lon="2.270552">
        <ele>34.202532</ele>
        <time>2025-03-21T13:59:32.018Z</time>
      </trkpt>
      <trkpt lat="48.891096" lon="2.270274">
        <ele>33.782089</ele>
        <time>2025-03-21T13:59:36.866Z</time>
      </trkpt>
      <trkpt lat="48.891468" lon="2.269907">
        <ele>33.361390</ele>
        <time>2025-03-21T13:59:42.107Z</time>
      </trkpt>
      <trkpt lat="48.892166" lon="2.269183">
        <ele>32.841305</ele>
        <time>2025-03-21T13:59:52.824Z</time>
      </trkpt>
      <trkpt lat="48.892299" lon="2.269028">
        <ele>32.738162</ele>
        <time>2025-03-21T13:59:55.147Z</time>
      </trkpt>
      <trkpt lat="48.892336" lon="2.268929">
        <ele>32.692072</ele>
        <time>2025-03-21T13:59:56.140Z</time>
      </trkpt>
      <trkpt lat="48.893094" lon="2.268151">
        <ele>32.402337</ele>
        <time>2025-03-21T14:00:08.760Z</time>
      </trkpt>
      <trkpt lat="48.893266" lon="2.267974">
        <ele>32.454112</ele>
        <time>2025-03-21T14:00:11.637Z</time>
      </trkpt>
      <trkpt lat="48.893453" lon="2.267856">
        <ele>32.504588</ele>
        <time>2025-03-21T14:00:14.793Z</time>
      </trkpt>
      <trkpt lat="48.893581" lon="2.267718">
        <ele>32.543705</ele>
        <time>2025-03-21T14:00:17.195Z</time>
      </trkpt>
      <trkpt lat="48.893634" lon="2.267662">
        <ele>32.559794</ele>
        <time>2025-03-21T14:00:18.153Z</time>
      </trkpt>
      <trkpt lat="48.893705" lon="2.267584">
        <ele>32.581631</ele>
        <time>2025-03-21T14:00:19.540Z</time>
      </trkpt>
      <trkpt lat="48.893816" lon="2.267498">
        <ele>32.612689</ele>
        <time>2025-03-21T14:00:21.631Z</time>
      </trkpt>
      <trkpt lat="48.894167" lon="2.267138">
        <ele>32.718236</ele>
        <time>2025-03-21T14:00:29.275Z</time>
      </trkpt>
      <trkpt lat="48.894235" lon="2.267031">
        <ele>32.742630</ele>
        <time>2025-03-21T14:00:31.187Z</time>
      </trkpt>
      <trkpt lat="48.894571" lon="2.266675">
        <ele>32.580324</ele>
        <time>2025-03-21T14:00:38.581Z</time>
      </trkpt>
      <trkpt lat="48.894760" lon="2.266482">
        <ele>32.430660</ele>
        <time>2025-03-21T14:00:42.344Z</time>
      </trkpt>
      <trkpt lat="48.894887" lon="2.266352">
        <ele>32.330016</ele>
        <time>2025-03-21T14:00:44.646Z</time>
      </trkpt>
      <trkpt lat="48.895101" lon="2.266149">
        <ele>32.164203</ele>
        <time>2025-03-21T14:00:48.074Z</time>
      </trkpt>
      <trkpt lat="48.895261" lon="2.265993">
        <ele>32.039254</ele>
        <time>2025-03-21T14:00:50.401Z</time>
      </trkpt>
      <trkpt lat="48.895344" lon="2.265932">
        <ele>31.978650</ele>
        <time>2025-03-21T14:00:51.434Z</time>
      </trkpt>
      <trkpt lat="48.895432" lon="2.265861">
        <ele>31.913158</ele>
        <time>2025-03-21T14:00:52.529Z</time>
      </trkpt>
      <trkpt lat="48.895985" lon="2.265297">
        <ele>32.100279</ele>
        <time>2025-03-21T14:00:59.456Z</time>
      </trkpt>
      <trkpt lat="48.896302" lon="2.264953">
        <ele>33.246570</ele>
        <time>2025-03-21T14:01:05.104Z</time>
      </trkpt>
      <trkpt lat="48.896593" lon="2.264717">
        <ele>34.217339</ele>
        <time>2025-03-21T14:01:12.730Z</time>
      </trkpt>
      <trkpt lat="48.896735" lon="2.264568">
        <ele>34.725155</ele>
        <time>2025-03-21T14:01:17.903Z</time>
      </trkpt>
      <trkpt lat="48.896771" lon="2.264533">
        <ele>34.850925</ele>
        <time>2025-03-21T14:01:19.392Z</time>
      </trkpt>
      <trkpt lat="48.896828" lon="2.264475">
        <ele>35.052799</ele>
        <time>2025-03-21T14:01:21.735Z</time>
      </trkpt>
      <trkpt lat="48.896932" lon="2.264370">
        <ele>35.420244</ele>
        <time>2025-03-21T14:01:26.336Z</time>
      </trkpt>
      <trkpt lat="48.897419" lon="2.263822">
        <ele>37.349713</ele>
        <time>2025-03-21T14:01:52.041Z</time>
      </trkpt>
      <trkpt lat="48.897545" lon="2.263637">
        <ele>38.101372</ele>
        <time>2025-03-21T14:02:00.485Z</time>
      </trkpt>
      <trkpt lat="48.897742" lon="2.263434">
        <ele>39.122692</ele>
        <time>2025-03-21T14:02:11.434Z</time>
      </trkpt>
      <trkpt lat="48.897830" lon="2.263351">
        <ele>39.567124</ele>
        <time>2025-03-21T14:02:15.711Z</time>
      </trkpt>
      <trkpt lat="48.897937" lon="2.263244">
        <ele>40.116746</ele>
        <time>2025-03-21T14:02:20.484Z</time>
      </trkpt>
      <trkpt lat="48.897993" lon="2.263189">
        <ele>40.402858</ele>
        <time>2025-03-21T14:02:22.805Z</time>
      </trkpt>
      <trkpt lat="48.898200" lon="2.262985">
        <ele>41.461517</ele>
        <time>2025-03-21T14:02:30.677Z</time>
      </trkpt>
      <trkpt lat="48.898295" lon="2.262889">
        <ele>41.951053</ele>
        <time>2025-03-21T14:02:33.768Z</time>
      </trkpt>
      <trkpt lat="48.898752" lon="2.262416">
        <ele>44.323594</ele>
        <time>2025-03-21T14:02:46.324Z</time>
      </trkpt>
      <trkpt lat="48.899496" lon="2.261689">
        <ele>44.151853</ele>
        <time>2025-03-21T14:02:59.822Z</time>
      </trkpt>
      <trkpt lat="48.899868" lon="2.261311">
        <ele>43.904645</ele>
        <time>2025-03-21T14:03:05.121Z</time>
      </trkpt>
      <trkpt lat="48.900167" lon="2.261007">
        <ele>43.705913</ele>
        <time>2025-03-21T14:03:09.283Z</time>
      </trkpt>
      <trkpt lat="48.900284" lon="2.260896">
        <ele>43.629716</ele>
        <time>2025-03-21T14:03:10.867Z</time>
      </trkpt>
      <trkpt lat="48.900415" lon="2.260773">
        <ele>43.496753</ele>
        <time>2025-03-21T14:03:12.616Z</time>
      </trkpt>
      <trkpt lat="48.900568" lon="2.260744">
        <ele>43.349523</ele>
        <time>2025-03-21T14:03:14.318Z</time>
      </trkpt>
      <trkpt lat="48.900971" lon="2.260333">
        <ele>42.886218</ele>
        <time>2025-03-21T14:03:19.580Z</time>
      </trkpt>
      <trkpt lat="48.901311" lon="2.259981">
        <ele>42.493497</ele>
        <time>2025-03-21T14:03:24.453Z</time>
      </trkpt>
      <trkpt lat="48.901471" lon="2.259811">
        <ele>42.307137</ele>
        <time>2025-03-21T14:03:27.099Z</time>
      </trkpt>
      <trkpt lat="48.901865" lon="2.259421">
        <ele>41.919106</ele>
        <time>2025-03-21T14:03:34.676Z</time>
      </trkpt>
      <trkpt lat="48.901942" lon="2.259346">
        <ele>41.985151</ele>
        <time>2025-03-21T14:03:36.251Z</time>
      </trkpt>
      <trkpt lat="48.902035" lon="2.259264">
        <ele>42.062799</ele>
        <time>2025-03-21T14:03:38.134Z</time>
      </trkpt>
      <trkpt lat="48.902194" lon="2.259140">
        <ele>42.191866</ele>
        <time>2025-03-21T14:03:41.475Z</time>
      </trkpt>
      <trkpt lat="48.902314" lon="2.259017">
        <ele>42.296389</ele>
        <time>2025-03-21T14:03:44.115Z</time>
      </trkpt>
      <trkpt lat="48.902338" lon="2.258861">
        <ele>42.372465</ele>
        <time>2025-03-21T14:03:46.048Z</time>
      </trkpt>
      <trkpt lat="48.902691" lon="2.258530">
        <ele>42.672003</ele>
        <time>2025-03-21T14:03:53.214Z</time>
      </trkpt>
      <trkpt lat="48.902994" lon="2.258223">
        <ele>42.934977</ele>
        <time>2025-03-21T14:04:00.065Z</time>
      </trkpt>
      <trkpt lat="48.903003" lon="2.258214">
        <ele>42.942757</ele>
        <time>2025-03-21T14:04:00.291Z</time>
      </trkpt>
      <trkpt lat="48.903030" lon="2.258187">
        <ele>42.966097</ele>
        <time>2025-03-21T14:04:00.928Z</time>
      </trkpt>
      <trkpt lat="48.903282" lon="2.257941">
        <ele>43.182385</ele>
        <time>2025-03-21T14:04:06.954Z</time>
      </trkpt>
      <trkpt lat="48.903300" lon="2.257923">
        <ele>43.198259</ele>
        <time>2025-03-21T14:04:07.351Z</time>
      </trkpt>
      <trkpt lat="48.903633" lon="2.257614">
        <ele>43.495329</ele>
        <time>2025-03-21T14:04:14.020Z</time>
      </trkpt>
      <trkpt lat="48.904088" lon="2.257171">
        <ele>43.906751</ele>
        <time>2025-03-21T14:04:22.713Z</time>
      </trkpt>
      <trkpt lat="48.904213" lon="2.257045">
        <ele>44.020953</ele>
        <time>2025-03-21T14:04:25.431Z</time>
      </trkpt>
      <trkpt lat="48.904299" lon="2.256960">
        <ele>44.099060</ele>
        <time>2025-03-21T14:04:27.249Z</time>
      </trkpt>
      <trkpt lat="48.904552" lon="2.256712">
        <ele>44.328281</ele>
        <time>2025-03-21T14:04:33.083Z</time>
      </trkpt>
      <trkpt lat="48.904602" lon="2.256660">
        <ele>44.374409</ele>
        <time>2025-03-21T14:04:34.415Z</time>
      </trkpt>
      <trkpt lat="48.904771" lon="2.256596">
        <ele>44.507048</ele>
        <time>2025-03-21T14:04:37.759Z</time>
      </trkpt>
      <trkpt lat="48.905169" lon="2.256236">
        <ele>44.711484</ele>
        <time>2025-03-21T14:04:46.366Z</time>
      </trkpt>
      <trkpt lat="48.905281" lon="2.256174">
        <ele>44.757060</ele>
        <time>2025-03-21T14:04:48.354Z</time>
      </trkpt>
      <trkpt lat="48.905370" lon="2.256234">
        <ele>44.794286</ele>
        <time>2025-03-21T14:04:49.715Z</time>
      </trkpt>
      <trkpt lat="48.905425" lon="2.256235">
        <ele>44.815319</ele>
        <time>2025-03-21T14:04:50.727Z</time>
      </trkpt>
      <trkpt lat="48.905515" lon="2.256178">
        <ele>44.852598</ele>
        <time>2025-03-21T14:04:52.113Z</time>
      </trkpt>
      <trkpt lat="48.905575" lon="2.256057">
        <ele>44.890696</ele>
        <time>2025-03-21T14:04:53.817Z</time>
      </trkpt>
      <trkpt lat="48.905585" lon="2.255905">
        <ele>44.929092</ele>
        <time>2025-03-21T14:04:55.338Z</time>
      </trkpt>
      <trkpt lat="48.905680" lon="2.255825">
        <ele>44.970614</ele>
        <time>2025-03-21T14:04:56.989Z</time>
      </trkpt>
      <trkpt lat="48.905862" lon="2.255753">
        <ele>45.042525</ele>
        <time>2025-03-21T14:04:59.993Z</time>
      </trkpt>
      <trkpt lat="48.906051" lon="2.255751">
        <ele>45.114801</ele>
        <time>2025-03-21T14:05:02.880Z</time>
      </trkpt>
      <trkpt lat="48.906298" lon="2.255724">
        <ele>45.209497</ele>
        <time>2025-03-21T14:05:06.517Z</time>
      </trkpt>
      <trkpt lat="48.906375" lon="2.255715">
        <ele>45.239029</ele>
        <time>2025-03-21T14:05:07.738Z</time>
      </trkpt>
      <trkpt lat="48.906401" lon="2.255711">
        <ele>45.249022</ele>
        <time>2025-03-21T14:05:08.135Z</time>
      </trkpt>
      <trkpt lat="48.906623" lon="2.255676">
        <ele>45.272607</ele>
        <time>2025-03-21T14:05:11.806Z</time>
      </trkpt>
      <trkpt lat="48.907451" lon="2.255593">
        <ele>45.358113</ele>
        <time>2025-03-21T14:05:23.915Z</time>
      </trkpt>
      <trkpt lat="48.907875" lon="2.255547">
        <ele>45.401914</ele>
        <time>2025-03-21T14:05:31.150Z</time>
      </trkpt>
      <trkpt lat="48.908125" lon="2.255498">
        <ele>45.427888</ele>
        <time>2025-03-21T14:05:35.177Z</time>
      </trkpt>
      <trkpt lat="48.908307" lon="2.255446">
        <ele>45.396324</ele>
        <time>2025-03-21T14:05:37.926Z</time>
      </trkpt>
      <trkpt lat="48.908865" lon="2.255286">
        <ele>45.203810</ele>
        <time>2025-03-21T14:05:45.523Z</time>
      </trkpt>
      <trkpt lat="48.908934" lon="2.255268">
        <ele>45.180075</ele>
        <time>2025-03-21T14:05:46.420Z</time>
      </trkpt>
      <trkpt lat="48.909272" lon="2.255169">
        <ele>45.063375</ele>
        <time>2025-03-21T14:05:51.157Z</time>
      </trkpt>
      <trkpt lat="48.909576" lon="2.255080">
        <ele>44.958417</ele>
        <time>2025-03-21T14:05:55.832Z</time>
      </trkpt>
      <trkpt lat="48.909642" lon="2.255065">
        <ele>44.935792</ele>
        <time>2025-03-21T14:05:56.769Z</time>
      </trkpt>
      <trkpt lat="48.909716" lon="2.255049">
        <ele>44.910451</ele>
        <time>2025-03-21T14:05:57.752Z</time>
      </trkpt>
      <trkpt lat="48.910641" lon="2.254781">
        <ele>44.450908</ele>
        <time>2025-03-21T14:06:09.272Z</time>
      </trkpt>
      <trkpt lat="48.910808" lon="2.254729">
        <ele>44.358486</ele>
        <time>2025-03-21T14:06:11.644Z</time>
      </trkpt>
      <trkpt lat="48.911022" lon="2.254670">
        <ele>44.240570</ele>
        <time>2025-03-21T14:06:14.859Z</time>
      </trkpt>
      <trkpt lat="48.911172" lon="2.254631">
        <ele>44.158063</ele>
        <time>2025-03-21T14:06:17.071Z</time>
      </trkpt>
      <trkpt lat="48.911346" lon="2.254554">
        <ele>44.059814</ele>
        <time>2025-03-21T14:06:19.639Z</time>
      </trkpt>
      <trkpt lat="48.911432" lon="2.254509">
        <ele>44.010506</ele>
        <time>2025-03-21T14:06:20.896Z</time>
      </trkpt>
      <trkpt lat="48.911735" lon="2.254336">
        <ele>43.824990</ele>
        <time>2025-03-21T14:06:25.103Z</time>
      </trkpt>
      <trkpt lat="48.912267" lon="2.253990">
        <ele>43.302827</ele>
        <time>2025-03-21T14:06:32.451Z</time>
      </trkpt>
      <trkpt lat="48.912570" lon="2.253793">
        <ele>43.005445</ele>
        <time>2025-03-21T14:06:36.417Z</time>
      </trkpt>
      <trkpt lat="48.912704" lon="2.253710">
        <ele>42.874871</ele>
        <time>2025-03-21T14:06:38.058Z</time>
      </trkpt>
      <trkpt lat="48.913317" lon="2.253325">
        <ele>42.276350</ele>
        <time>2025-03-21T14:06:46.431Z</time>
      </trkpt>
      <trkpt lat="48.913352" lon="2.253324">
        <ele>42.244757</ele>
        <time>2025-03-21T14:06:46.858Z</time>
      </trkpt>
      <trkpt lat="48.913391" lon="2.253322">
        <ele>42.209008</ele>
        <time>2025-03-21T14:06:47.328Z</time>
      </trkpt>
      <trkpt lat="48.913651" lon="2.253169">
        <ele>41.949714</ele>
        <time>2025-03-21T14:06:50.681Z</time>
      </trkpt>
      <trkpt lat="48.913703" lon="2.253150">
        <ele>41.899971</ele>
        <time>2025-03-21T14:06:51.304Z</time>
      </trkpt>
      <trkpt lat="48.913887" lon="2.253035">
        <ele>41.714949</ele>
        <time>2025-03-21T14:06:53.616Z</time>
      </trkpt>
      <trkpt lat="48.914026" lon="2.252996">
        <ele>41.583479</ele>
        <time>2025-03-21T14:06:55.219Z</time>
      </trkpt>
      <trkpt lat="48.914183" lon="2.252951">
        <ele>41.434877</ele>
        <time>2025-03-21T14:06:57.086Z</time>
      </trkpt>
      <trkpt lat="48.914512" lon="2.252899">
        <ele>41.127211</ele>
        <time>2025-03-21T14:07:01.134Z</time>
      </trkpt>
      <trkpt lat="48.914905" lon="2.252861">
        <ele>40.760925</ele>
        <time>2025-03-21T14:07:06.707Z</time>
      </trkpt>
      <trkpt lat="48.914964" lon="2.252857">
        <ele>40.705992</ele>
        <time>2025-03-21T14:07:07.554Z</time>
      </trkpt>
      <trkpt lat="48.915095" lon="2.252853">
        <ele>40.584118</ele>
        <time>2025-03-21T14:07:09.263Z</time>
      </trkpt>
      <trkpt lat="48.915490" lon="2.252782">
        <ele>40.477369</ele>
        <time>2025-03-21T14:07:14.196Z</time>
      </trkpt>
      <trkpt lat="48.915963" lon="2.252776">
        <ele>40.378316</ele>
        <time>2025-03-21T14:07:20.387Z</time>
      </trkpt>
      <trkpt lat="48.916279" lon="2.252754">
        <ele>40.312075</ele>
        <time>2025-03-21T14:07:25.482Z</time>
      </trkpt>
      <trkpt lat="48.916596" lon="2.252743">
        <ele>40.245676</ele>
        <time>2025-03-21T14:07:30.688Z</time>
      </trkpt>
      <trkpt lat="48.916739" lon="2.252737">
        <ele>40.215719</ele>
        <time>2025-03-21T14:07:32.875Z</time>
      </trkpt>
      <trkpt lat="48.916821" lon="2.252732">
        <ele>40.198534</ele>
        <time>2025-03-21T14:07:34.044Z</time>
      </trkpt>
      <trkpt lat="48.917355" lon="2.252710">
        <ele>40.306087</ele>
        <time>2025-03-21T14:07:41.359Z</time>
      </trkpt>
      <trkpt lat="48.917473" lon="2.252705">
        <ele>40.341283</ele>
        <time>2025-03-21T14:07:42.988Z</time>
      </trkpt>
      <trkpt lat="48.918114" lon="2.252688">
        <ele>40.532426</ele>
        <time>2025-03-21T14:07:53.327Z</time>
      </trkpt>
      <trkpt lat="48.918321" lon="2.252688">
        <ele>40.594144</ele>
        <time>2025-03-21T14:07:56.894Z</time>
      </trkpt>
      <trkpt lat="48.918699" lon="2.252670">
        <ele>40.706900</ele>
        <time>2025-03-21T14:08:03.352Z</time>
      </trkpt>
      <trkpt lat="48.918987" lon="2.252659">
        <ele>40.926115</ele>
        <time>2025-03-21T14:08:08.557Z</time>
      </trkpt>
      <trkpt lat="48.919044" lon="2.252660">
        <ele>40.971673</ele>
        <time>2025-03-21T14:08:09.625Z</time>
      </trkpt>
      <trkpt lat="48.919421" lon="2.252660">
        <ele>41.272977</ele>
        <time>2025-03-21T14:08:16.881Z</time>
      </trkpt>
      <trkpt lat="48.919479" lon="2.252658">
        <ele>41.319343</ele>
        <time>2025-03-21T14:08:17.984Z</time>
      </trkpt>
      <trkpt lat="48.919936" lon="2.252658">
        <ele>41.684583</ele>
        <time>2025-03-21T14:08:26.161Z</time>
      </trkpt>
      <trkpt lat="48.920180" lon="2.252667">
        <ele>41.879648</ele>
        <time>2025-03-21T14:08:30.567Z</time>
      </trkpt>
      <trkpt lat="48.920513" lon="2.252785">
        <ele>42.151151</ele>
        <time>2025-03-21T14:08:36.707Z</time>
      </trkpt>
      <trkpt lat="48.920723" lon="2.252794">
        <ele>42.167411</ele>
        <time>2025-03-21T14:08:40.507Z</time>
      </trkpt>
      <trkpt lat="48.920943" lon="2.252772">
        <ele>42.184476</ele>
        <time>2025-03-21T14:08:44.411Z</time>
      </trkpt>
      <trkpt lat="48.921233" lon="2.252648">
        <ele>42.207791</ele>
        <time>2025-03-21T14:08:49.352Z</time>
      </trkpt>
      <trkpt lat="48.921963" lon="2.252630">
        <ele>42.264300</ele>
        <time>2025-03-21T14:09:00.849Z</time>
      </trkpt>
      <trkpt lat="48.922054" lon="2.252628">
        <ele>42.271344</ele>
        <time>2025-03-21T14:09:02.112Z</time>
      </trkpt>
      <trkpt lat="48.922097" lon="2.252626">
        <ele>42.274674</ele>
        <time>2025-03-21T14:09:02.702Z</time>
      </trkpt>
      <trkpt lat="48.922336" lon="2.252614">
        <ele>42.191392</ele>
        <time>2025-03-21T14:09:05.672Z</time>
      </trkpt>
      <trkpt lat="48.922412" lon="2.252654">
        <ele>41.986815</ele>
        <time>2025-03-21T14:09:06.605Z</time>
      </trkpt>
      <trkpt lat="48.922589" lon="2.252658">
        <ele>41.536483</ele>
        <time>2025-03-21T14:09:08.636Z</time>
      </trkpt>
      <trkpt lat="48.922801" lon="2.252642">
        <ele>40.996498</ele>
        <time>2025-03-21T14:09:11.023Z</time>
      </trkpt>
      <trkpt lat="48.922885" lon="2.252546">
        <ele>40.729260</ele>
        <time>2025-03-21T14:09:12.186Z</time>
      </trkpt>
      <trkpt lat="48.923059" lon="2.252441">
        <ele>40.253083</ele>
        <time>2025-03-21T14:09:14.194Z</time>
      </trkpt>
      <trkpt lat="48.923181" lon="2.252404">
        <ele>39.936616</ele>
        <time>2025-03-21T14:09:15.507Z</time>
      </trkpt>
      <trkpt lat="48.923344" lon="2.252464">
        <ele>39.509992</ele>
        <time>2025-03-21T14:09:17.247Z</time>
      </trkpt>
      <trkpt lat="48.923916" lon="2.252612">
        <ele>38.033962</ele>
        <time>2025-03-21T14:09:23.022Z</time>
      </trkpt>
      <trkpt lat="48.924022" lon="2.252600">
        <ele>37.763556</ele>
        <time>2025-03-21T14:09:24.047Z</time>
      </trkpt>
      <trkpt lat="48.924074" lon="2.252661">
        <ele>37.555349</ele>
        <time>2025-03-21T14:09:24.686Z</time>
      </trkpt>
      <trkpt lat="48.924174" lon="2.252683">
        <ele>37.208555</ele>
        <time>2025-03-21T14:09:25.662Z</time>
      </trkpt>
      <trkpt lat="48.924276" lon="2.252662">
        <ele>36.855275</ele>
        <time>2025-03-21T14:09:26.671Z</time>
      </trkpt>
      <trkpt lat="48.924761" lon="2.252724">
        <ele>35.184765</ele>
        <time>2025-03-21T14:09:31.464Z</time>
      </trkpt>
      <trkpt lat="48.925556" lon="2.252870">
        <ele>32.436322</ele>
        <time>2025-03-21T14:09:39.386Z</time>
      </trkpt>
      <trkpt lat="48.926086" lon="2.252986">
        <ele>31.186474</ele>
        <time>2025-03-21T14:09:45.079Z</time>
      </trkpt>
      <trkpt lat="48.926127" lon="2.253002">
        <ele>31.131821</ele>
        <time>2025-03-21T14:09:45.545Z</time>
      </trkpt>
      <trkpt lat="48.927070" lon="2.253453">
        <ele>29.855504</ele>
        <time>2025-03-21T14:09:57.325Z</time>
      </trkpt>
      <trkpt lat="48.927339" lon="2.253574">
        <ele>29.493315</ele>
        <time>2025-03-21T14:10:01.209Z</time>
      </trkpt>
      <trkpt lat="48.927635" lon="2.253725">
        <ele>29.163609</ele>
        <time>2025-03-21T14:10:05.474Z</time>
      </trkpt>
      <trkpt lat="48.928247" lon="2.254052">
        <ele>28.804792</ele>
        <time>2025-03-21T14:10:13.879Z</time>
      </trkpt>
      <trkpt lat="48.928865" lon="2.254406">
        <ele>28.439502</ele>
        <time>2025-03-21T14:10:22.644Z</time>
      </trkpt>
      <trkpt lat="48.929057" lon="2.254518">
        <ele>28.325754</ele>
        <time>2025-03-21T14:10:25.236Z</time>
      </trkpt>
      <trkpt lat="48.929204" lon="2.254604">
        <ele>28.238632</ele>
        <time>2025-03-21T14:10:27.246Z</time>
      </trkpt>
      <trkpt lat="48.929776" lon="2.254915">
        <ele>28.364733</ele>
        <time>2025-03-21T14:10:35.338Z</time>
      </trkpt>
      <trkpt lat="48.929842" lon="2.254943">
        <ele>28.381398</ele>
        <time>2025-03-21T14:10:36.443Z</time>
      </trkpt>
      <trkpt lat="48.929875" lon="2.254953">
        <ele>28.389582</ele>
        <time>2025-03-21T14:10:36.978Z</time>
      </trkpt>
      <trkpt lat="48.929905" lon="2.254963">
        <ele>28.397052</ele>
        <time>2025-03-21T14:10:37.426Z</time>
      </trkpt>
      <trkpt lat="48.930071" lon="2.255015">
        <ele>28.438275</ele>
        <time>2025-03-21T14:10:40.229Z</time>
      </trkpt>
      <trkpt lat="48.930176" lon="2.255048">
        <ele>28.464352</ele>
        <time>2025-03-21T14:10:42.206Z</time>
      </trkpt>
      <trkpt lat="48.930277" lon="2.255080">
        <ele>28.489445</ele>
        <time>2025-03-21T14:10:44.069Z</time>
      </trkpt>
      <trkpt lat="48.930491" lon="2.255125">
        <ele>28.541991</ele>
        <time>2025-03-21T14:10:47.881Z</time>
      </trkpt>
      <trkpt lat="48.930719" lon="2.255155">
        <ele>28.597654</ele>
        <time>2025-03-21T14:10:51.808Z</time>
      </trkpt>
      <trkpt lat="48.931057" lon="2.255190">
        <ele>28.656881</ele>
        <time>2025-03-21T14:10:57.641Z</time>
      </trkpt>
      <trkpt lat="48.931674" lon="2.255251">
        <ele>28.623525</ele>
        <time>2025-03-21T14:11:09.145Z</time>
      </trkpt>
      <trkpt lat="48.932211" lon="2.255308">
        <ele>28.594484</ele>
        <time>2025-03-21T14:11:16.216Z</time>
      </trkpt>
      <trkpt lat="48.932289" lon="2.255317">
        <ele>28.590264</ele>
        <time>2025-03-21T14:11:17.142Z</time>
      </trkpt>
      <trkpt lat="48.932397" lon="2.255342">
        <ele>28.584370</ele>
        <time>2025-03-21T14:11:18.418Z</time>
      </trkpt>
      <trkpt lat="48.932528" lon="2.255375">
        <ele>28.577207</ele>
        <time>2025-03-21T14:11:20.003Z</time>
      </trkpt>
      <trkpt lat="48.932725" lon="2.255443">
        <ele>28.566309</ele>
        <time>2025-03-21T14:11:22.566Z</time>
      </trkpt>
      <trkpt lat="48.933278" lon="2.255550">
        <ele>28.575970</ele>
        <time>2025-03-21T14:11:30.977Z</time>
      </trkpt>
      <trkpt lat="48.933791" lon="2.255733">
        <ele>28.588147</ele>
        <time>2025-03-21T14:11:38.225Z</time>
      </trkpt>
      <trkpt lat="48.933920" lon="2.255797">
        <ele>28.591282</ele>
        <time>2025-03-21T14:11:40.182Z</time>
      </trkpt>
      <trkpt lat="48.934328" lon="2.256047">
        <ele>28.601446</ele>
        <time>2025-03-21T14:11:47.844Z</time>
      </trkpt>
      <trkpt lat="48.934409" lon="2.256100">
        <ele>28.603484</ele>
        <time>2025-03-21T14:11:49.578Z</time>
      </trkpt>
      <trkpt lat="48.934539" lon="2.256160">
        <ele>28.597284</ele>
        <time>2025-03-21T14:11:52.237Z</time>
      </trkpt>
      <trkpt lat="48.934941" lon="2.256316">
        <ele>28.517595</ele>
        <time>2025-03-21T14:11:59.207Z</time>
      </trkpt>
      <trkpt lat="48.935110" lon="2.256406">
        <ele>28.483203</ele>
        <time>2025-03-21T14:12:01.397Z</time>
      </trkpt>
      <trkpt lat="48.935415" lon="2.256599">
        <ele>28.419757</ele>
        <time>2025-03-21T14:12:05.422Z</time>
      </trkpt>
      <trkpt lat="48.936063" lon="2.257080">
        <ele>28.281275</ele>
        <time>2025-03-21T14:12:15.301Z</time>
      </trkpt>
      <trkpt lat="48.936194" lon="2.257178">
        <ele>28.266028</ele>
        <time>2025-03-21T14:12:17.282Z</time>
      </trkpt>
      <trkpt lat="48.936631" lon="2.257499">
        <ele>28.345921</ele>
        <time>2025-03-21T14:12:24.168Z</time>
      </trkpt>
      <trkpt lat="48.937285" lon="2.257974">
        <ele>28.465235</ele>
        <time>2025-03-21T14:12:36.348Z</time>
      </trkpt>
      <trkpt lat="48.937435" lon="2.258214">
        <ele>28.501066</ele>
        <time>2025-03-21T14:12:40.079Z</time>
      </trkpt>
      <trkpt lat="48.937599" lon="2.258186">
        <ele>28.528239</ele>
        <time>2025-03-21T14:12:42.695Z</time>
      </trkpt>
      <trkpt lat="48.937759" lon="2.257989">
        <ele>28.554823</ele>
        <time>2025-03-21T14:12:45.809Z</time>
      </trkpt>
      <trkpt lat="48.939130" lon="2.256326">
        <ele>28.482670</ele>
        <time>2025-03-21T14:13:11.715Z</time>
      </trkpt>
      <trkpt lat="48.939221" lon="2.256224">
        <ele>28.447568</ele>
        <time>2025-03-21T14:13:13.244Z</time>
      </trkpt>
      <trkpt lat="48.939264" lon="2.256181">
        <ele>28.430211</ele>
        <time>2025-03-21T14:13:13.949Z</time>
      </trkpt>
      <trkpt lat="48.939318" lon="2.256128">
        <ele>28.408535</ele>
        <time>2025-03-21T14:13:14.812Z</time>
      </trkpt>
      <trkpt lat="48.940128" lon="2.255262">
        <ele>28.074605</ele>
        <time>2025-03-21T14:13:27.618Z</time>
      </trkpt>
      <trkpt lat="48.941232" lon="2.254103">
        <ele>28.463883</ele>
        <time>2025-03-21T14:13:47.093Z</time>
      </trkpt>
      <trkpt lat="48.941751" lon="2.253564">
        <ele>28.956375</ele>
        <time>2025-03-21T14:13:58.455Z</time>
      </trkpt>
      <trkpt lat="48.942019" lon="2.253277">
        <ele>29.213229</ele>
        <time>2025-03-21T14:14:05.810Z</time>
      </trkpt>
      <trkpt lat="48.942116" lon="2.253185">
        <ele>29.344484</ele>
        <time>2025-03-21T14:14:08.485Z</time>
      </trkpt>
      <trkpt lat="48.942190" lon="2.253102">
        <ele>29.588957</ele>
        <time>2025-03-21T14:14:10.782Z</time>
      </trkpt>
      <trkpt lat="48.942252" lon="2.253037">
        <ele>29.789182</ele>
        <time>2025-03-21T14:14:12.494Z</time>
      </trkpt>
      <trkpt lat="48.942481" lon="2.252778">
        <ele>30.547957</ele>
        <time>2025-03-21T14:14:19.394Z</time>
      </trkpt>
      <trkpt lat="48.942509" lon="2.252740">
        <ele>30.647725</ele>
        <time>2025-03-21T14:14:20.323Z</time>
      </trkpt>
      <trkpt lat="48.942571" lon="2.252655">
        <ele>30.869640</ele>
        <time>2025-03-21T14:14:22.421Z</time>
      </trkpt>
      <trkpt lat="48.942696" lon="2.252522">
        <ele>31.275262</ele>
        <time>2025-03-21T14:14:26.227Z</time>
      </trkpt>
      <trkpt lat="48.942819" lon="2.252436">
        <ele>31.635269</ele>
        <time>2025-03-21T14:14:29.723Z</time>
      </trkpt>
      <trkpt lat="48.942951" lon="2.252326">
        <ele>32.035517</ele>
        <time>2025-03-21T14:14:33.712Z</time>
      </trkpt>
      <trkpt lat="48.942984" lon="2.252291">
        <ele>32.142489</ele>
        <time>2025-03-21T14:14:34.715Z</time>
      </trkpt>
      <trkpt lat="48.943009" lon="2.252264">
        <ele>32.224015</ele>
        <time>2025-03-21T14:14:35.505Z</time>
      </trkpt>
      <trkpt lat="48.943236" lon="2.251994">
        <ele>32.990201</ele>
        <time>2025-03-21T14:14:43.591Z</time>
      </trkpt>
      <trkpt lat="48.944286" lon="2.250952">
        <ele>35.727564</ele>
        <time>2025-03-21T14:15:16.891Z</time>
      </trkpt>
      <trkpt lat="48.945538" lon="2.249705">
        <ele>37.877058</ele>
        <time>2025-03-21T14:15:45.842Z</time>
      </trkpt>
      <trkpt lat="48.945892" lon="2.249359">
        <ele>38.100084</ele>
        <time>2025-03-21T14:15:52.291Z</time>
      </trkpt>
      <trkpt lat="48.945973" lon="2.249278">
        <ele>38.151463</ele>
        <time>2025-03-21T14:15:53.693Z</time>
      </trkpt>
      <trkpt lat="48.946328" lon="2.248914">
        <ele>38.378376</ele>
        <time>2025-03-21T14:16:00.174Z</time>
      </trkpt>
      <trkpt lat="48.946467" lon="2.248848">
        <ele>38.455571</ele>
        <time>2025-03-21T14:16:02.523Z</time>
      </trkpt>
      <trkpt lat="48.946491" lon="2.248750">
        <ele>38.491990</ele>
        <time>2025-03-21T14:16:03.690Z</time>
      </trkpt>
      <trkpt lat="48.946557" lon="2.248665">
        <ele>38.537821</ele>
        <time>2025-03-21T14:16:05.120Z</time>
      </trkpt>
      <trkpt lat="48.946362" lon="2.248284">
        <ele>38.749842</ele>
        <time>2025-03-21T14:16:10.685Z</time>
      </trkpt>
      <trkpt lat="48.946205" lon="2.248050">
        <ele>38.897393</ele>
        <time>2025-03-21T14:16:14.509Z</time>
      </trkpt>
      <trkpt lat="48.946131" lon="2.247888">
        <ele>38.984433</ele>
        <time>2025-03-21T14:16:16.695Z</time>
      </trkpt>
      <trkpt lat="48.946749" lon="2.247213">
        <ele>39.495229</ele>
        <time>2025-03-21T14:16:30.147Z</time>
      </trkpt>
      <trkpt lat="48.947105" lon="2.246827">
        <ele>39.766894</ele>
        <time>2025-03-21T14:16:38.688Z</time>
      </trkpt>
      <trkpt lat="48.947192" lon="2.246729">
        <ele>39.798919</ele>
        <time>2025-03-21T14:16:40.680Z</time>
      </trkpt>
      <trkpt lat="48.947824" lon="2.246154">
        <ele>40.016789</ele>
        <time>2025-03-21T14:16:52.666Z</time>
      </trkpt>
      <trkpt lat="48.948733" lon="2.245311">
        <ele>40.357970</ele>
        <time>2025-03-21T14:17:08.419Z</time>
      </trkpt>
      <trkpt lat="48.949153" lon="2.244921">
        <ele>40.580179</ele>
        <time>2025-03-21T14:17:15.543Z</time>
      </trkpt>
      <trkpt lat="48.949318" lon="2.244811">
        <ele>40.661541</ele>
        <time>2025-03-21T14:17:18.347Z</time>
      </trkpt>
      <trkpt lat="48.950187" lon="2.244381">
        <ele>41.074277</ele>
        <time>2025-03-21T14:17:34.469Z</time>
      </trkpt>
      <trkpt lat="48.950320" lon="2.244325">
        <ele>41.201238</ele>
        <time>2025-03-21T14:17:37.210Z</time>
      </trkpt>
      <trkpt lat="48.951297" lon="2.243888">
        <ele>42.365569</ele>
        <time>2025-03-21T14:17:57.662Z</time>
      </trkpt>
      <trkpt lat="48.951647" lon="2.243738">
        <ele>42.781318</ele>
        <time>2025-03-21T14:18:04.350Z</time>
      </trkpt>
      <trkpt lat="48.952566" lon="2.243571">
        <ele>44.006369</ele>
        <time>2025-03-21T14:18:22.098Z</time>
      </trkpt>
      <trkpt lat="48.952867" lon="2.243499">
        <ele>44.439149</ele>
        <time>2025-03-21T14:18:28.362Z</time>
      </trkpt>
      <trkpt lat="48.952920" lon="2.243476">
        <ele>44.517427</ele>
        <time>2025-03-21T14:18:29.527Z</time>
      </trkpt>
      <trkpt lat="48.952996" lon="2.243431">
        <ele>44.633250</ele>
        <time>2025-03-21T14:18:31.340Z</time>
      </trkpt>
      <trkpt lat="48.953150" lon="2.243339">
        <ele>44.868220</ele>
        <time>2025-03-21T14:18:35.025Z</time>
      </trkpt>
      <trkpt lat="48.953919" lon="2.242894">
        <ele>46.110238</ele>
        <time>2025-03-21T14:18:52.752Z</time>
      </trkpt>
      <trkpt lat="48.954051" lon="2.242817">
        <ele>46.355632</ele>
        <time>2025-03-21T14:18:55.856Z</time>
      </trkpt>
      <trkpt lat="48.954305" lon="2.242669">
        <ele>46.827761</ele>
        <time>2025-03-21T14:19:01.632Z</time>
      </trkpt>
      <trkpt lat="48.954741" lon="2.242414">
        <ele>47.638575</ele>
        <time>2025-03-21T14:19:11.353Z</time>
      </trkpt>
      <trkpt lat="48.954869" lon="2.242327">
        <ele>47.881916</ele>
        <time>2025-03-21T14:19:14.257Z</time>
      </trkpt>
      <trkpt lat="48.955714" lon="2.241484">
        <ele>49.958471</ele>
        <time>2025-03-21T14:19:36.964Z</time>
      </trkpt>
      <trkpt lat="48.956363" lon="2.240825">
        <ele>51.854208</ele>
        <time>2025-03-21T14:19:56.664Z</time>
      </trkpt>
      <trkpt lat="48.957126" lon="2.240199">
        <ele>54.140390</ele>
        <time>2025-03-21T14:20:18.655Z</time>
      </trkpt>
      <trkpt lat="48.957522" lon="2.239896">
        <ele>55.472039</ele>
        <time>2025-03-21T14:20:30.455Z</time>
      </trkpt>
      <trkpt lat="48.957943" lon="2.239631">
        <ele>56.840864</ele>
        <time>2025-03-21T14:20:42.960Z</time>
      </trkpt>
      <trkpt lat="48.957978" lon="2.239608">
        <ele>56.955406</ele>
        <time>2025-03-21T14:20:44.032Z</time>
      </trkpt>
      <trkpt lat="48.958406" lon="2.239370">
        <ele>58.324518</ele>
        <time>2025-03-21T14:20:56.937Z</time>
      </trkpt>
      <trkpt lat="48.959283" lon="2.238882">
        <ele>60.832553</ele>
        <time>2025-03-21T14:21:21.999Z</time>
      </trkpt>
      <trkpt lat="48.959460" lon="2.238760">
        <ele>61.347563</ele>
        <time>2025-03-21T14:21:26.798Z</time>
      </trkpt>
      <trkpt lat="48.959692" lon="2.238577">
        <ele>62.040142</ele>
        <time>2025-03-21T14:21:33.064Z</time>
      </trkpt>
      <trkpt lat="48.960197" lon="2.238210">
        <ele>63.515474</ele>
        <time>2025-03-21T14:21:46.304Z</time>
      </trkpt>
      <trkpt lat="48.960559" lon="2.238009">
        <ele>64.483349</ele>
        <time>2025-03-21T14:21:55.258Z</time>
      </trkpt>
      <trkpt lat="48.961036" lon="2.237734">
        <ele>65.764524</ele>
        <time>2025-03-21T14:22:07.417Z</time>
      </trkpt>
      <trkpt lat="48.961915" lon="2.236861">
        <ele>68.611289</ele>
        <time>2025-03-21T14:22:34.602Z</time>
      </trkpt>
      <trkpt lat="48.962122" lon="2.236693">
        <ele>69.443872</ele>
        <time>2025-03-21T14:22:41.069Z</time>
      </trkpt>
      <trkpt lat="48.962353" lon="2.236581">
        <ele>70.304383</ele>
        <time>2025-03-21T14:22:47.941Z</time>
      </trkpt>
      <trkpt lat="48.962551" lon="2.236545">
        <ele>71.012203</ele>
        <time>2025-03-21T14:22:53.599Z</time>
      </trkpt>
      <trkpt lat="48.963344" lon="2.236646">
        <ele>73.836896</ele>
        <time>2025-03-21T14:23:17.372Z</time>
      </trkpt>
      <trkpt lat="48.963675" lon="2.236692">
        <ele>75.341712</ele>
        <time>2025-03-21T14:23:28.091Z</time>
      </trkpt>
      <trkpt lat="48.963751" lon="2.236703">
        <ele>75.731410</ele>
        <time>2025-03-21T14:23:30.524Z</time>
      </trkpt>
      <trkpt lat="48.964102" lon="2.236753">
        <ele>77.530948</ele>
        <time>2025-03-21T14:23:42.247Z</time>
      </trkpt>
      <trkpt lat="48.964734" lon="2.236845">
        <ele>80.771762</ele>
        <time>2025-03-21T14:24:05.910Z</time>
      </trkpt>
      <trkpt lat="48.965071" lon="2.236889">
        <ele>82.498325</ele>
        <time>2025-03-21T14:24:18.591Z</time>
      </trkpt>
      <trkpt lat="48.965175" lon="2.236878">
        <ele>83.030483</ele>
        <time>2025-03-21T14:24:22.445Z</time>
      </trkpt>
      <trkpt lat="48.965256" lon="2.236829">
        <ele>83.479433</ele>
        <time>2025-03-21T14:24:25.730Z</time>
      </trkpt>
      <trkpt lat="48.965353" lon="2.236719">
        <ele>84.227346</ele>
        <time>2025-03-21T14:24:30.202Z</time>
      </trkpt>
      <trkpt lat="48.965428" lon="2.236562">
        <ele>85.015712</ele>
        <time>2025-03-21T14:24:34.906Z</time>
      </trkpt>
      <trkpt lat="48.965482" lon="2.236327">
        <ele>86.026641</ele>
        <time>2025-03-21T14:24:40.613Z</time>
      </trkpt>
      <trkpt lat="48.965535" lon="2.235477">
        <ele>89.493424</ele>
        <time>2025-03-21T14:25:01.642Z</time>
      </trkpt>
      <trkpt lat="48.965640" lon="2.234905">
        <ele>91.904988</ele>
        <time>2025-03-21T14:25:17.016Z</time>
      </trkpt>
      <trkpt lat="48.965675" lon="2.234749">
        <ele>92.574359</ele>
        <time>2025-03-21T14:25:21.156Z</time>
      </trkpt>
      <trkpt lat="48.965922" lon="2.233610">
        <ele>98.042104</ele>
        <time>2025-03-21T14:25:56.854Z</time>
      </trkpt>
      <trkpt lat="48.965941" lon="2.233522">
        <ele>98.496663</ele>
        <time>2025-03-21T14:25:59.838Z</time>
      </trkpt>
      <trkpt lat="48.966149" lon="2.232574">
        <ele>103.401301</ele>
        <time>2025-03-21T14:26:31.371Z</time>
      </trkpt>
      <trkpt lat="48.966239" lon="2.232357">
        <ele>104.660776</ele>
        <time>2025-03-21T14:26:39.064Z</time>
      </trkpt>
      <trkpt lat="48.966419" lon="2.232190">
        <ele>106.236052</ele>
        <time>2025-03-21T14:26:48.321Z</time>
      </trkpt>
      <trkpt lat="48.966604" lon="2.232148">
        <ele>107.634059</ele>
        <time>2025-03-21T14:26:56.239Z</time>
      </trkpt>
      <trkpt lat="48.966725" lon="2.232202">
        <ele>108.450287</ele>
        <time>2025-03-21T14:27:01.429Z</time>
      </trkpt>
      <trkpt lat="48.966872" lon="2.232344">
        <ele>109.454383</ele>
        <time>2025-03-21T14:27:08.399Z</time>
      </trkpt>
      <trkpt lat="48.967836" lon="2.233659">
        <ele>116.918997</ele>
        <time>2025-03-21T14:27:55.114Z</time>
      </trkpt>
      <trkpt lat="48.967941" lon="2.233821">
        <ele>117.781090</ele>
        <time>2025-03-21T14:28:00.770Z</time>
      </trkpt>
      <trkpt lat="48.968081" lon="2.234018">
        <ele>118.813667</ele>
        <time>2025-03-21T14:28:08.116Z</time>
      </trkpt>
      <trkpt lat="48.968152" lon="2.234113">
        <ele>119.283124</ele>
        <time>2025-03-21T14:28:11.715Z</time>
      </trkpt>
      <trkpt lat="48.968271" lon="2.234271">
        <ele>120.067328</ele>
        <time>2025-03-21T14:28:17.843Z</time>
      </trkpt>
      <trkpt lat="48.968857" lon="2.235020">
        <ele>123.867448</ele>
        <time>2025-03-21T14:28:47.897Z</time>
      </trkpt>
      <trkpt lat="48.968994" lon="2.235201">
        <ele>124.768341</ele>
        <time>2025-03-21T14:28:54.612Z</time>
      </trkpt>
      <trkpt lat="48.969125" lon="2.235359">
        <ele>125.598403</ele>
        <time>2025-03-21T14:29:00.569Z</time>
      </trkpt>
      <trkpt lat="48.969330" lon="2.235488">
        <ele>126.700260</ele>
        <time>2025-03-21T14:29:07.722Z</time>
      </trkpt>
      <trkpt lat="48.969459" lon="2.235643">
        <ele>127.201380</ele>
        <time>2025-03-21T14:29:12.239Z</time>
      </trkpt>
      <trkpt lat="48.969544" lon="2.235842">
        <ele>126.637431</ele>
        <time>2025-03-21T14:29:15.749Z</time>
      </trkpt>
      <trkpt lat="48.969530" lon="2.235995">
        <ele>126.270489</ele>
        <time>2025-03-21T14:29:17.607Z</time>
      </trkpt>
      <trkpt lat="48.969557" lon="2.236090">
        <ele>126.024589</ele>
        <time>2025-03-21T14:29:18.706Z</time>
      </trkpt>
      <trkpt lat="48.969650" lon="2.236183">
        <ele>125.622046</ele>
        <time>2025-03-21T14:29:20.236Z</time>
      </trkpt>
      <trkpt lat="48.969763" lon="2.236157">
        <ele>125.208526</ele>
        <time>2025-03-21T14:29:21.600Z</time>
      </trkpt>
      <trkpt lat="48.969777" lon="2.236144">
        <ele>125.149198</ele>
        <time>2025-03-21T14:29:21.788Z</time>
      </trkpt>
      <trkpt lat="48.969789" lon="2.236128">
        <ele>125.091494</ele>
        <time>2025-03-21T14:29:21.980Z</time>
      </trkpt>
      <trkpt lat="48.969926" lon="2.236121">
        <ele>124.595490</ele>
        <time>2025-03-21T14:29:23.455Z</time>
      </trkpt>
      <trkpt lat="48.970083" lon="2.236218">
        <ele>123.982451</ele>
        <time>2025-03-21T14:29:25.181Z</time>
      </trkpt>
      <trkpt lat="48.970232" lon="2.236237">
        <ele>123.441420</ele>
        <time>2025-03-21T14:29:26.616Z</time>
      </trkpt>
      <trkpt lat="48.970751" lon="2.236136">
        <ele>121.548195</ele>
        <time>2025-03-21T14:29:31.289Z</time>
      </trkpt>
      <trkpt lat="48.970764" lon="2.236136">
        <ele>121.501156</ele>
        <time>2025-03-21T14:29:31.404Z</time>
      </trkpt>
      <trkpt lat="48.971133" lon="2.236159">
        <ele>119.021344</ele>
        <time>2025-03-21T14:29:34.597Z</time>
      </trkpt>
      <trkpt lat="48.971747" lon="2.236255">
        <ele>112.924702</ele>
        <time>2025-03-21T14:29:39.882Z</time>
      </trkpt>
      <trkpt lat="48.972606" lon="2.236459">
        <ele>104.337452</ele>
        <time>2025-03-21T14:29:47.355Z</time>
      </trkpt>
      <trkpt lat="48.973121" lon="2.236514">
        <ele>99.853237</ele>
        <time>2025-03-21T14:29:51.836Z</time>
      </trkpt>
      <trkpt lat="48.973936" lon="2.236568">
        <ele>93.092509</ele>
        <time>2025-03-21T14:29:58.909Z</time>
      </trkpt>
      <trkpt lat="48.974314" lon="2.236647">
        <ele>89.930480</ele>
        <time>2025-03-21T14:30:02.293Z</time>
      </trkpt>
      <trkpt lat="48.974534" lon="2.236717">
        <ele>88.117034</ele>
        <time>2025-03-21T14:30:04.358Z</time>
      </trkpt>
      <trkpt lat="48.974894" lon="2.236995">
        <ele>86.692643</ele>
        <time>2025-03-21T14:30:08.209Z</time>
      </trkpt>
      <trkpt lat="48.974975" lon="2.237123">
        <ele>86.280773</ele>
        <time>2025-03-21T14:30:09.365Z</time>
      </trkpt>
      <trkpt lat="48.974995" lon="2.237205">
        <ele>86.078130</ele>
        <time>2025-03-21T14:30:09.924Z</time>
      </trkpt>
      <trkpt lat="48.975085" lon="2.237342">
        <ele>85.629128</ele>
        <time>2025-03-21T14:30:11.199Z</time>
      </trkpt>
      <trkpt lat="48.975192" lon="2.237369">
        <ele>85.246362</ele>
        <time>2025-03-21T14:30:12.316Z</time>
      </trkpt>
      <trkpt lat="48.975275" lon="2.237333">
        <ele>84.941802</ele>
        <time>2025-03-21T14:30:13.214Z</time>
      </trkpt>
      <trkpt lat="48.975327" lon="2.237268">
        <ele>84.704420</ele>
        <time>2025-03-21T14:30:13.942Z</time>
      </trkpt>
      <trkpt lat="48.975527" lon="2.237079">
        <ele>83.873829</ele>
        <time>2025-03-21T14:30:16.503Z</time>
      </trkpt>
      <trkpt lat="48.975776" lon="2.237060">
        <ele>82.993966</ele>
        <time>2025-03-21T14:30:19.343Z</time>
      </trkpt>
      <trkpt lat="48.976630" lon="2.237258">
        <ele>79.551487</ele>
        <time>2025-03-21T14:30:28.316Z</time>
      </trkpt>
      <trkpt lat="48.976812" lon="2.237295">
        <ele>78.766297</ele>
        <time>2025-03-21T14:30:30.077Z</time>
      </trkpt>
      <trkpt lat="48.977161" lon="2.237295">
        <ele>77.273858</ele>
        <time>2025-03-21T14:30:33.354Z</time>
      </trkpt>
      <trkpt lat="48.977941" lon="2.237046">
        <ele>73.913517</ele>
        <time>2025-03-21T14:30:40.802Z</time>
      </trkpt>
      <trkpt lat="48.978355" lon="2.237046">
        <ele>72.482713</ele>
        <time>2025-03-21T14:30:44.747Z</time>
      </trkpt>
      <trkpt lat="48.978573" lon="2.237061">
        <ele>71.728526</ele>
        <time>2025-03-21T14:30:46.886Z</time>
      </trkpt>
      <trkpt lat="48.978870" lon="2.237182">
        <ele>70.666016</ele>
        <time>2025-03-21T14:30:49.947Z</time>
      </trkpt>
      <trkpt lat="48.979192" lon="2.237387">
        <ele>69.459923</ele>
        <time>2025-03-21T14:30:53.463Z</time>
      </trkpt>
      <trkpt lat="48.979262" lon="2.237471">
        <ele>69.151975</ele>
        <time>2025-03-21T14:30:54.388Z</time>
      </trkpt>
      <trkpt lat="48.979263" lon="2.237492">
        <ele>69.104215</ele>
        <time>2025-03-21T14:30:54.539Z</time>
      </trkpt>
      <trkpt lat="48.979294" lon="2.237545">
        <ele>68.943182</ele>
        <time>2025-03-21T14:30:55.038Z</time>
      </trkpt>
      <trkpt lat="48.979354" lon="2.237560">
        <ele>68.733046</ele>
        <time>2025-03-21T14:30:55.690Z</time>
      </trkpt>
      <trkpt lat="48.979486" lon="2.237515">
        <ele>68.265568</ele>
        <time>2025-03-21T14:30:57.200Z</time>
      </trkpt>
      <trkpt lat="48.979503" lon="2.237513">
        <ele>68.206640</ele>
        <time>2025-03-21T14:30:57.393Z</time>
      </trkpt>
      <trkpt lat="48.979639" lon="2.237570">
        <ele>67.840010</ele>
        <time>2025-03-21T14:30:59.006Z</time>
      </trkpt>
      <trkpt lat="48.979772" lon="2.237603">
        <ele>67.689017</ele>
        <time>2025-03-21T14:31:00.577Z</time>
      </trkpt>
      <trkpt lat="48.979889" lon="2.237642">
        <ele>67.554814</ele>
        <time>2025-03-21T14:31:02.002Z</time>
      </trkpt>
      <trkpt lat="48.980104" lon="2.237746">
        <ele>67.302050</ele>
        <time>2025-03-21T14:31:04.713Z</time>
      </trkpt>
      <trkpt lat="48.980323" lon="2.237792">
        <ele>67.054333</ele>
        <time>2025-03-21T14:31:07.434Z</time>
      </trkpt>
      <trkpt lat="48.980925" lon="2.238008">
        <ele>66.361322</ele>
        <time>2025-03-21T14:31:15.009Z</time>
      </trkpt>
      <trkpt lat="48.981240" lon="2.238121">
        <ele>65.998705</ele>
        <time>2025-03-21T14:31:19.043Z</time>
      </trkpt>
      <trkpt lat="48.981444" lon="2.238194">
        <ele>65.808862</ele>
        <time>2025-03-21T14:31:21.761Z</time>
      </trkpt>
      <trkpt lat="48.981815" lon="2.238322">
        <ele>65.544140</ele>
        <time>2025-03-21T14:31:26.706Z</time>
      </trkpt>
      <trkpt lat="48.981921" lon="2.238354">
        <ele>65.468938</ele>
        <time>2025-03-21T14:31:28.062Z</time>
      </trkpt>
      <trkpt lat="48.982020" lon="2.238367">
        <ele>65.399787</ele>
        <time>2025-03-21T14:31:29.311Z</time>
      </trkpt>
      <trkpt lat="48.982204" lon="2.238371">
        <ele>65.271725</ele>
        <time>2025-03-21T14:31:31.588Z</time>
      </trkpt>
      <trkpt lat="48.982532" lon="2.238310">
        <ele>65.041769</ele>
        <time>2025-03-21T14:31:35.705Z</time>
      </trkpt>
      <trkpt lat="48.982881" lon="2.238138">
        <ele>64.786505</ele>
        <time>2025-03-21T14:31:40.458Z</time>
      </trkpt>
      <trkpt lat="48.983107" lon="2.237959">
        <ele>64.613162</ele>
        <time>2025-03-21T14:31:43.846Z</time>
      </trkpt>
      <trkpt lat="48.983308" lon="2.237740">
        <ele>64.472362</ele>
        <time>2025-03-21T14:31:47.362Z</time>
      </trkpt>
      <trkpt lat="48.983992" lon="2.236936">
        <ele>63.980121</ele>
        <time>2025-03-21T14:31:59.031Z</time>
      </trkpt>
      <trkpt lat="48.984069" lon="2.236900">
        <ele>63.934227</ele>
        <time>2025-03-21T14:32:00.140Z</time>
      </trkpt>
      <trkpt lat="48.984114" lon="2.236941">
        <ele>63.904351</ele>
        <time>2025-03-21T14:32:00.812Z</time>
      </trkpt>
      <trkpt lat="48.984145" lon="2.236951">
        <ele>63.886296</ele>
        <time>2025-03-21T14:32:01.226Z</time>
      </trkpt>
      <trkpt lat="48.984205" lon="2.236936">
        <ele>63.851650</ele>
        <time>2025-03-21T14:32:02.044Z</time>
      </trkpt>
      <trkpt lat="48.984254" lon="2.236880">
        <ele>63.816749</ele>
        <time>2025-03-21T14:32:02.823Z</time>
      </trkpt>
      <trkpt lat="48.984279" lon="2.236796">
        <ele>63.782258</ele>
        <time>2025-03-21T14:32:03.619Z</time>
      </trkpt>
      <trkpt lat="48.984352" lon="2.236661">
        <ele>63.716846</ele>
        <time>2025-03-21T14:32:05.065Z</time>
      </trkpt>
      <trkpt lat="48.984457" lon="2.236565">
        <ele>63.647072</ele>
        <time>2025-03-21T14:32:06.601Z</time>
      </trkpt>
      <trkpt lat="48.984685" lon="2.236469">
        <ele>63.447071</ele>
        <time>2025-03-21T14:32:09.483Z</time>
      </trkpt>
      <trkpt lat="48.984945" lon="2.236418">
        <ele>63.193703</ele>
        <time>2025-03-21T14:32:12.612Z</time>
      </trkpt>
      <trkpt lat="48.985073" lon="2.236423">
        <ele>63.069948</ele>
        <time>2025-03-21T14:32:14.107Z</time>
      </trkpt>
      <trkpt lat="48.985303" lon="2.236452">
        <ele>62.846889</ele>
        <time>2025-03-21T14:32:16.764Z</time>
      </trkpt>
      <trkpt lat="48.985727" lon="2.236585">
        <ele>62.428493</ele>
        <time>2025-03-21T14:32:21.859Z</time>
      </trkpt>
      <trkpt lat="48.985861" lon="2.236633">
        <ele>62.295449</ele>
        <time>2025-03-21T14:32:23.512Z</time>
      </trkpt>
      <trkpt lat="48.986045" lon="2.236701">
        <ele>62.112455</ele>
        <time>2025-03-21T14:32:25.850Z</time>
      </trkpt>
      <trkpt lat="48.986160" lon="2.236748">
        <ele>61.997377</ele>
        <time>2025-03-21T14:32:27.423Z</time>
      </trkpt>
      <trkpt lat="48.986259" lon="2.236808">
        <ele>61.894402</ele>
        <time>2025-03-21T14:32:28.910Z</time>
      </trkpt>
      <trkpt lat="48.986292" lon="2.236724">
        <ele>61.856627</ele>
        <time>2025-03-21T14:32:29.787Z</time>
      </trkpt>
      <trkpt lat="48.986362" lon="2.236531">
        <ele>61.813306</ele>
        <time>2025-03-21T14:32:31.847Z</time>
      </trkpt>
      <trkpt lat="48.986374" lon="2.236487">
        <ele>61.803946</ele>
        <time>2025-03-21T14:32:32.318Z</time>
      </trkpt>
      <trkpt lat="48.986554" lon="2.235794">
        <ele>61.657531</ele>
        <time>2025-03-21T14:32:39.558Z</time>
      </trkpt>
      <trkpt lat="48.986698" lon="2.235370">
        <ele>61.563743</ele>
        <time>2025-03-21T14:32:44.127Z</time>
      </trkpt>
      <trkpt lat="48.987058" lon="2.234397">
        <ele>61.344312</ele>
        <time>2025-03-21T14:32:54.264Z</time>
      </trkpt>
      <trkpt lat="48.987440" lon="2.233540">
        <ele>61.020207</ele>
        <time>2025-03-21T14:33:02.927Z</time>
      </trkpt>
      <trkpt lat="48.987704" lon="2.232419">
        <ele>60.636417</ele>
        <time>2025-03-21T14:33:12.972Z</time>
      </trkpt>
      <trkpt lat="48.987757" lon="2.232268">
        <ele>60.581236</ele>
        <time>2025-03-21T14:33:14.532Z</time>
      </trkpt>
      <trkpt lat="48.987834" lon="2.232165">
        <ele>60.530924</ele>
        <time>2025-03-21T14:33:15.991Z</time>
      </trkpt>
      <trkpt lat="48.988136" lon="2.231461">
        <ele>60.441006</ele>
        <time>2025-03-21T14:33:24.048Z</time>
      </trkpt>
      <trkpt lat="48.988544" lon="2.230484">
        <ele>60.431239</ele>
        <time>2025-03-21T14:33:35.108Z</time>
      </trkpt>
      <trkpt lat="48.988580" lon="2.230411">
        <ele>60.430469</ele>
        <time>2025-03-21T14:33:35.982Z</time>
      </trkpt>
      <trkpt lat="48.988603" lon="2.230361">
        <ele>60.429954</ele>
        <time>2025-03-21T14:33:36.555Z</time>
      </trkpt>
      <trkpt lat="48.988647" lon="2.230273">
        <ele>60.429021</ele>
        <time>2025-03-21T14:33:37.615Z</time>
      </trkpt>
      <trkpt lat="48.988725" lon="2.230117">
        <ele>60.427367</ele>
        <time>2025-03-21T14:33:39.501Z</time>
      </trkpt>
      <trkpt lat="48.988805" lon="2.229957">
        <ele>60.425671</ele>
        <time>2025-03-21T14:33:41.461Z</time>
      </trkpt>
      <trkpt lat="48.988978" lon="2.229739">
        <ele>60.422786</ele>
        <time>2025-03-21T14:33:44.839Z</time>
      </trkpt>
      <trkpt lat="48.989796" lon="2.229045">
        <ele>61.233943</ele>
        <time>2025-03-21T14:34:00.893Z</time>
      </trkpt>
      <trkpt lat="48.990144" lon="2.228506">
        <ele>61.664875</ele>
        <time>2025-03-21T14:34:10.633Z</time>
      </trkpt>
      <trkpt lat="48.990276" lon="2.228254">
        <ele>61.848633</ele>
        <time>2025-03-21T14:34:14.969Z</time>
      </trkpt>
      <trkpt lat="48.990348" lon="2.228048">
        <ele>61.981646</ele>
        <time>2025-03-21T14:34:18.135Z</time>
      </trkpt>
      <trkpt lat="48.990394" lon="2.227954">
        <ele>62.066866</ele>
        <time>2025-03-21T14:34:19.707Z</time>
      </trkpt>
      <trkpt lat="48.990684" lon="2.227263">
        <ele>62.669487</ele>
        <time>2025-03-21T14:34:31.050Z</time>
      </trkpt>
      <trkpt lat="48.991058" lon="2.226210">
        <ele>63.549163</ele>
        <time>2025-03-21T14:34:46.374Z</time>
      </trkpt>
      <trkpt lat="48.991338" lon="2.225400">
        <ele>64.036241</ele>
        <time>2025-03-21T14:34:56.851Z</time>
      </trkpt>
      <trkpt lat="48.991557" lon="2.224776">
        <ele>64.123765</ele>
        <time>2025-03-21T14:35:04.506Z</time>
      </trkpt>
      <trkpt lat="48.991642" lon="2.224620">
        <ele>64.148844</ele>
        <time>2025-03-21T14:35:06.613Z</time>
      </trkpt>
      <trkpt lat="48.991678" lon="2.224600">
        <ele>64.156066</ele>
        <time>2025-03-21T14:35:07.217Z</time>
      </trkpt>
      <trkpt lat="48.991691" lon="2.224582">
        <ele>64.159377</ele>
        <time>2025-03-21T14:35:07.480Z</time>
      </trkpt>
      <trkpt lat="48.991705" lon="2.224534">
        <ele>64.165874</ele>
        <time>2025-03-21T14:35:07.999Z</time>
      </trkpt>
      <trkpt lat="48.991694" lon="2.224462">
        <ele>64.175017</ele>
        <time>2025-03-21T14:35:08.744Z</time>
      </trkpt>
      <trkpt lat="48.991726" lon="2.224249">
        <ele>64.202043</ele>
        <time>2025-03-21T14:35:10.857Z</time>
      </trkpt>
      <trkpt lat="48.991892" lon="2.223704">
        <ele>64.276357</ele>
        <time>2025-03-21T14:35:16.480Z</time>
      </trkpt>
      <trkpt lat="48.992181" lon="2.223250">
        <ele>64.339319</ele>
        <time>2025-03-21T14:35:22.321Z</time>
      </trkpt>
      <trkpt lat="48.992244" lon="2.223155">
        <ele>64.340913</ele>
        <time>2025-03-21T14:35:23.567Z</time>
      </trkpt>
      <trkpt lat="48.992298" lon="2.223002">
        <ele>64.342962</ele>
        <time>2025-03-21T14:35:25.186Z</time>
      </trkpt>
      <trkpt lat="48.992365" lon="2.222925">
        <ele>64.344471</ele>
        <time>2025-03-21T14:35:26.387Z</time>
      </trkpt>
      <trkpt lat="48.992399" lon="2.222803">
        <ele>64.346034</ele>
        <time>2025-03-21T14:35:27.626Z</time>
      </trkpt>
      <trkpt lat="48.992395" lon="2.222705">
        <ele>64.347192</ele>
        <time>2025-03-21T14:35:28.552Z</time>
      </trkpt>
      <trkpt lat="48.992471" lon="2.222600">
        <ele>64.349036</ele>
        <time>2025-03-21T14:35:30.030Z</time>
      </trkpt>
      <trkpt lat="48.992612" lon="2.222476">
        <ele>64.351963</ele>
        <time>2025-03-21T14:35:32.373Z</time>
      </trkpt>
      <trkpt lat="48.992711" lon="2.222442">
        <ele>64.353787</ele>
        <time>2025-03-21T14:35:33.852Z</time>
      </trkpt>
      <trkpt lat="48.992922" lon="2.222348">
        <ele>64.357739</ele>
        <time>2025-03-21T14:35:37.096Z</time>
      </trkpt>
      <trkpt lat="48.993191" lon="2.222156">
        <ele>64.363079</ele>
        <time>2025-03-21T14:35:41.676Z</time>
      </trkpt>
      <trkpt lat="48.993292" lon="2.222086">
        <ele>64.365074</ele>
        <time>2025-03-21T14:35:43.443Z</time>
      </trkpt>
      <trkpt lat="48.993526" lon="2.221923">
        <ele>64.369699</ele>
        <time>2025-03-21T14:35:47.562Z</time>
      </trkpt>
      <trkpt lat="48.993853" lon="2.221715">
        <ele>64.414955</ele>
        <time>2025-03-21T14:35:53.304Z</time>
      </trkpt>
      <trkpt lat="48.993970" lon="2.221647">
        <ele>64.431735</ele>
        <time>2025-03-21T14:35:55.319Z</time>
      </trkpt>
      <trkpt lat="48.994227" lon="2.221504">
        <ele>64.468398</ele>
        <time>2025-03-21T14:35:59.690Z</time>
      </trkpt>
      <trkpt lat="48.994532" lon="2.221343">
        <ele>64.511652</ele>
        <time>2025-03-21T14:36:04.755Z</time>
      </trkpt>
      <trkpt lat="48.994556" lon="2.221331">
        <ele>64.515037</ele>
        <time>2025-03-21T14:36:05.135Z</time>
      </trkpt>
      <trkpt lat="48.994674" lon="2.221269">
        <ele>64.531763</ele>
        <time>2025-03-21T14:36:06.988Z</time>
      </trkpt>
      <trkpt lat="48.994769" lon="2.221217">
        <ele>64.545290</ele>
        <time>2025-03-21T14:36:08.462Z</time>
      </trkpt>
      <trkpt lat="48.995006" lon="2.221088">
        <ele>64.579014</ele>
        <time>2025-03-21T14:36:12.063Z</time>
      </trkpt>
      <trkpt lat="48.995601" lon="2.220751">
        <ele>64.901007</ele>
        <time>2025-03-21T14:36:21.071Z</time>
      </trkpt>
      <trkpt lat="48.995712" lon="2.220675">
        <ele>64.990210</ele>
        <time>2025-03-21T14:36:22.942Z</time>
      </trkpt>
      <trkpt lat="48.995795" lon="2.220623">
        <ele>65.055993</ele>
        <time>2025-03-21T14:36:24.416Z</time>
      </trkpt>
      <trkpt lat="48.995989" lon="2.220497">
        <ele>65.210579</ele>
        <time>2025-03-21T14:36:27.954Z</time>
      </trkpt>
      <trkpt lat="48.996057" lon="2.220449">
        <ele>65.265514</ele>
        <time>2025-03-21T14:36:29.315Z</time>
      </trkpt>
      <trkpt lat="48.996107" lon="2.220513">
        <ele>65.313377</ele>
        <time>2025-03-21T14:36:30.476Z</time>
      </trkpt>
      <trkpt lat="48.996170" lon="2.220487">
        <ele>65.361223</ele>
        <time>2025-03-21T14:36:31.693Z</time>
      </trkpt>
      <trkpt lat="48.996186" lon="2.220365">
        <ele>65.421061</ele>
        <time>2025-03-21T14:36:33.129Z</time>
      </trkpt>
      <trkpt lat="48.997022" lon="2.219721">
        <ele>66.327810</ele>
        <time>2025-03-21T14:36:52.223Z</time>
      </trkpt>
      <trkpt lat="48.997132" lon="2.219624">
        <ele>66.536063</ele>
        <time>2025-03-21T14:36:55.080Z</time>
      </trkpt>
      <trkpt lat="48.997941" lon="2.218968">
        <ele>68.037714</ele>
        <time>2025-03-21T14:37:16.002Z</time>
      </trkpt>
      <trkpt lat="48.997999" lon="2.218918">
        <ele>68.146908</ele>
        <time>2025-03-21T14:37:17.401Z</time>
      </trkpt>
      <trkpt lat="48.998142" lon="2.218816">
        <ele>68.405634</ele>
        <time>2025-03-21T14:37:20.617Z</time>
      </trkpt>
      <trkpt lat="48.998340" lon="2.218746">
        <ele>68.738711</ele>
        <time>2025-03-21T14:37:24.701Z</time>
      </trkpt>
      <trkpt lat="48.998482" lon="2.218730">
        <ele>68.911042</ele>
        <time>2025-03-21T14:37:27.441Z</time>
      </trkpt>
      <trkpt lat="48.998664" lon="2.218759">
        <ele>69.018400</ele>
        <time>2025-03-21T14:37:30.971Z</time>
      </trkpt>
      <trkpt lat="48.998792" lon="2.218817">
        <ele>69.096744</ele>
        <time>2025-03-21T14:37:33.567Z</time>
      </trkpt>
      <trkpt lat="48.999017" lon="2.219015">
        <ele>69.249168</ele>
        <time>2025-03-21T14:37:38.473Z</time>
      </trkpt>
      <trkpt lat="48.999153" lon="2.219119">
        <ele>69.338435</ele>
        <time>2025-03-21T14:37:41.261Z</time>
      </trkpt>
      <trkpt lat="48.999236" lon="2.219140">
        <ele>69.387796</ele>
        <time>2025-03-21T14:37:42.809Z</time>
      </trkpt>
      <trkpt lat="48.999483" lon="2.219169">
        <ele>69.533136</ele>
        <time>2025-03-21T14:37:47.173Z</time>
      </trkpt>
      <trkpt lat="48.999592" lon="2.219157">
        <ele>69.597251</ele>
        <time>2025-03-21T14:37:48.985Z</time>
      </trkpt>
      <trkpt lat="48.999660" lon="2.219130">
        <ele>69.638476</ele>
        <time>2025-03-21T14:37:50.127Z</time>
      </trkpt>
      <trkpt lat="48.999853" lon="2.219012">
        <ele>69.760475</ele>
        <time>2025-03-21T14:37:53.247Z</time>
      </trkpt>
      <trkpt lat="49.000522" lon="2.218614">
        <ele>69.625901</ele>
        <time>2025-03-21T14:38:03.228Z</time>
      </trkpt>
      <trkpt lat="49.001120" lon="2.218286">
        <ele>69.168161</ele>
        <time>2025-03-21T14:38:11.158Z</time>
      </trkpt>
      <trkpt lat="49.001865" lon="2.217881">
        <ele>68.620444</ele>
        <time>2025-03-21T14:38:20.673Z</time>
      </trkpt>
      <trkpt lat="49.002075" lon="2.217728">
        <ele>68.548901</ele>
        <time>2025-03-21T14:38:23.575Z</time>
      </trkpt>
      <trkpt lat="49.002156" lon="2.217672">
        <ele>68.521562</ele>
        <time>2025-03-21T14:38:24.706Z</time>
      </trkpt>
      <trkpt lat="49.002262" lon="2.217596">
        <ele>68.485555</ele>
        <time>2025-03-21T14:38:26.237Z</time>
      </trkpt>
      <trkpt lat="49.002351" lon="2.217565">
        <ele>68.457493</ele>
        <time>2025-03-21T14:38:27.472Z</time>
      </trkpt>
      <trkpt lat="49.002632" lon="2.217762">
        <ele>68.362422</ele>
        <time>2025-03-21T14:38:31.709Z</time>
      </trkpt>
      <trkpt lat="49.002832" lon="2.217147">
        <ele>68.224008</ele>
        <time>2025-03-21T14:38:38.267Z</time>
      </trkpt>
      <trkpt lat="49.002866" lon="2.217048">
        <ele>68.201475</ele>
        <time>2025-03-21T14:38:39.387Z</time>
      </trkpt>
      <trkpt lat="49.002991" lon="2.216666">
        <ele>68.115394</ele>
        <time>2025-03-21T14:38:43.858Z</time>
      </trkpt>
      <trkpt lat="49.003205" lon="2.216010">
        <ele>67.915693</ele>
        <time>2025-03-21T14:38:51.587Z</time>
      </trkpt>
      <trkpt lat="49.003507" lon="2.215064">
        <ele>67.608728</ele>
        <time>2025-03-21T14:39:01.207Z</time>
      </trkpt>
      <trkpt lat="49.004276" lon="2.212673">
        <ele>66.702814</ele>
        <time>2025-03-21T14:39:22.584Z</time>
      </trkpt>
      <trkpt lat="49.004883" lon="2.210730">
        <ele>66.413776</ele>
        <time>2025-03-21T14:39:43.313Z</time>
      </trkpt>
      <trkpt lat="49.005045" lon="2.210312">
        <ele>66.493646</ele>
        <time>2025-03-21T14:39:48.424Z</time>
      </trkpt>
      <trkpt lat="49.005115" lon="2.210130">
        <ele>66.528354</ele>
        <time>2025-03-21T14:39:50.681Z</time>
      </trkpt>
      <trkpt lat="49.005142" lon="2.210064">
        <ele>66.541150</ele>
        <time>2025-03-21T14:39:51.534Z</time>
      </trkpt>
      <trkpt lat="49.005228" lon="2.209915">
        <ele>66.573799</ele>
        <time>2025-03-21T14:39:53.727Z</time>
      </trkpt>
      <trkpt lat="49.005321" lon="2.209895">
        <ele>66.597353</ele>
        <time>2025-03-21T14:39:55.308Z</time>
      </trkpt>
      <trkpt lat="49.005372" lon="2.209826">
        <ele>66.614453</ele>
        <time>2025-03-21T14:39:56.459Z</time>
      </trkpt>
      <trkpt lat="49.005397" lon="2.209729">
        <ele>66.631598</ele>
        <time>2025-03-21T14:39:57.614Z</time>
      </trkpt>
      <trkpt lat="49.005390" lon="2.209631">
        <ele>66.647815</ele>
        <time>2025-03-21T14:39:58.715Z</time>
      </trkpt>
      <trkpt lat="49.005356" lon="2.209547">
        <ele>66.664053</ele>
        <time>2025-03-21T14:39:59.817Z</time>
      </trkpt>
      <trkpt lat="49.005377" lon="2.209363">
        <ele>66.694778</ele>
        <time>2025-03-21T14:40:01.804Z</time>
      </trkpt>
      <trkpt lat="49.005453" lon="2.209082">
        <ele>66.773208</ele>
        <time>2025-03-21T14:40:04.942Z</time>
      </trkpt>
      <trkpt lat="49.005513" lon="2.208855">
        <ele>66.843686</ele>
        <time>2025-03-21T14:40:07.547Z</time>
      </trkpt>
      <trkpt lat="49.005548" lon="2.208717">
        <ele>66.886294</ele>
        <time>2025-03-21T14:40:09.130Z</time>
      </trkpt>
      <trkpt lat="49.005568" lon="2.208657">
        <ele>66.905675</ele>
        <time>2025-03-21T14:40:09.909Z</time>
      </trkpt>
      <trkpt lat="49.005705" lon="2.208244">
        <ele>67.038951</ele>
        <time>2025-03-21T14:40:14.983Z</time>
      </trkpt>
      <trkpt lat="49.005782" lon="2.208014">
        <ele>67.113312</ele>
        <time>2025-03-21T14:40:17.873Z</time>
      </trkpt>
      <trkpt lat="49.005837" lon="2.207852">
        <ele>67.165842</ele>
        <time>2025-03-21T14:40:19.907Z</time>
      </trkpt>
      <trkpt lat="49.005889" lon="2.207698">
        <ele>67.215721</ele>
        <time>2025-03-21T14:40:21.851Z</time>
      </trkpt>
      <trkpt lat="49.006072" lon="2.207192">
        <ele>67.382114</ele>
        <time>2025-03-21T14:40:28.396Z</time>
      </trkpt>
      <trkpt lat="49.006408" lon="2.206224">
        <ele>67.545117</ele>
        <time>2025-03-21T14:40:39.530Z</time>
      </trkpt>
      <trkpt lat="49.006433" lon="2.206152">
        <ele>67.550792</ele>
        <time>2025-03-21T14:40:40.404Z</time>
      </trkpt>
      <trkpt lat="49.006493" lon="2.205987">
        <ele>67.563932</ele>
        <time>2025-03-21T14:40:42.370Z</time>
      </trkpt>
      <trkpt lat="49.006624" lon="2.205585">
        <ele>67.595198</ele>
        <time>2025-03-21T14:40:46.790Z</time>
      </trkpt>
      <trkpt lat="49.006669" lon="2.205452">
        <ele>67.605622</ele>
        <time>2025-03-21T14:40:48.234Z</time>
      </trkpt>
      <trkpt lat="49.006700" lon="2.205359">
        <ele>67.612888</ele>
        <time>2025-03-21T14:40:49.260Z</time>
      </trkpt>
      <trkpt lat="49.006751" lon="2.205211">
        <ele>67.624532</ele>
        <time>2025-03-21T14:40:50.901Z</time>
      </trkpt>
      <trkpt lat="49.006800" lon="2.205069">
        <ele>67.635708</ele>
        <time>2025-03-21T14:40:52.504Z</time>
      </trkpt>
      <trkpt lat="49.006873" lon="2.204856">
        <ele>67.652447</ele>
        <time>2025-03-21T14:40:54.884Z</time>
      </trkpt>
      <trkpt lat="49.006970" lon="2.204571">
        <ele>67.674812</ele>
        <time>2025-03-21T14:40:58.067Z</time>
      </trkpt>
      <trkpt lat="49.007069" lon="2.204283">
        <ele>67.627158</ele>
        <time>2025-03-21T14:41:01.262Z</time>
      </trkpt>
      <trkpt lat="49.007164" lon="2.204007">
        <ele>67.495774</ele>
        <time>2025-03-21T14:41:04.255Z</time>
      </trkpt>
      <trkpt lat="49.007229" lon="2.203817">
        <ele>67.405447</ele>
        <time>2025-03-21T14:41:06.281Z</time>
      </trkpt>
      <trkpt lat="49.007248" lon="2.203763">
        <ele>67.379618</ele>
        <time>2025-03-21T14:41:06.850Z</time>
      </trkpt>
      <trkpt lat="49.007279" lon="2.203673">
        <ele>67.336769</ele>
        <time>2025-03-21T14:41:07.796Z</time>
      </trkpt>
      <trkpt lat="49.007290" lon="2.203639">
        <ele>67.320789</ele>
        <time>2025-03-21T14:41:08.141Z</time>
      </trkpt>
      <trkpt lat="49.007512" lon="2.202990">
        <ele>67.012261</ele>
        <time>2025-03-21T14:41:14.568Z</time>
      </trkpt>
      <trkpt lat="49.007543" lon="2.202900">
        <ele>66.969412</ele>
        <time>2025-03-21T14:41:15.437Z</time>
      </trkpt>
      <trkpt lat="49.007560" lon="2.202851">
        <ele>66.946047</ele>
        <time>2025-03-21T14:41:15.909Z</time>
      </trkpt>
      <trkpt lat="49.007743" lon="2.202306">
        <ele>66.687971</ele>
        <time>2025-03-21T14:41:20.927Z</time>
      </trkpt>
      <trkpt lat="49.007761" lon="2.202255">
        <ele>66.663560</ele>
        <time>2025-03-21T14:41:21.374Z</time>
      </trkpt>
      <trkpt lat="49.007795" lon="2.202155">
        <ele>66.616082</ele>
        <time>2025-03-21T14:41:22.254Z</time>
      </trkpt>
      <trkpt lat="49.007889" lon="2.201878">
        <ele>66.407972</ele>
        <time>2025-03-21T14:41:24.605Z</time>
      </trkpt>
      <trkpt lat="49.008017" lon="2.201506">
        <ele>65.942517</ele>
        <time>2025-03-21T14:41:27.648Z</time>
      </trkpt>
      <trkpt lat="49.008349" lon="2.200542">
        <ele>64.736107</ele>
        <time>2025-03-21T14:41:35.474Z</time>
      </trkpt>
      <trkpt lat="49.008402" lon="2.200399">
        <ele>64.554117</ele>
        <time>2025-03-21T14:41:36.652Z</time>
      </trkpt>
      <trkpt lat="49.008408" lon="2.200381">
        <ele>64.531745</ele>
        <time>2025-03-21T14:41:36.798Z</time>
      </trkpt>
      <trkpt lat="49.008479" lon="2.200171">
        <ele>64.269971</ele>
        <time>2025-03-21T14:41:38.499Z</time>
      </trkpt>
      <trkpt lat="49.008505" lon="2.200085">
        <ele>64.165047</ele>
        <time>2025-03-21T14:41:39.194Z</time>
      </trkpt>
      <trkpt lat="49.008513" lon="2.200060">
        <ele>64.134226</ele>
        <time>2025-03-21T14:41:39.388Z</time>
      </trkpt>
      <trkpt lat="49.008614" lon="2.199775">
        <ele>63.775301</ele>
        <time>2025-03-21T14:41:41.786Z</time>
      </trkpt>
      <trkpt lat="49.008680" lon="2.199591">
        <ele>63.542935</ele>
        <time>2025-03-21T14:41:43.409Z</time>
      </trkpt>
      <trkpt lat="49.008731" lon="2.199454">
        <ele>63.421376</ele>
        <time>2025-03-21T14:41:44.630Z</time>
      </trkpt>
      <trkpt lat="49.008820" lon="2.199207">
        <ele>63.241424</ele>
        <time>2025-03-21T14:41:46.862Z</time>
      </trkpt>
      <trkpt lat="49.008840" lon="2.199154">
        <ele>63.202381</ele>
        <time>2025-03-21T14:41:47.362Z</time>
      </trkpt>
      <trkpt lat="49.008878" lon="2.199054">
        <ele>63.128585</ele>
        <time>2025-03-21T14:41:48.289Z</time>
      </trkpt>
      <trkpt lat="49.008919" lon="2.198947">
        <ele>63.049456</ele>
        <time>2025-03-21T14:41:49.291Z</time>
      </trkpt>
      <trkpt lat="49.008938" lon="2.198898">
        <ele>63.013110</ele>
        <time>2025-03-21T14:41:49.774Z</time>
      </trkpt>
      <trkpt lat="49.008965" lon="2.198826">
        <ele>62.960151</ele>
        <time>2025-03-21T14:41:50.439Z</time>
      </trkpt>
      <trkpt lat="49.008909" lon="2.198780">
        <ele>62.898227</ele>
        <time>2025-03-21T14:41:51.275Z</time>
      </trkpt>
      <trkpt lat="49.008859" lon="2.198738">
        <ele>62.842653</ele>
        <time>2025-03-21T14:41:52.029Z</time>
      </trkpt>
      <trkpt lat="49.008788" lon="2.198679">
        <ele>62.763935</ele>
        <time>2025-03-21T14:41:53.083Z</time>
      </trkpt>
      <trkpt lat="49.008622" lon="2.198540">
        <ele>62.579566</ele>
        <time>2025-03-21T14:41:55.440Z</time>
      </trkpt>
      <trkpt lat="49.008531" lon="2.198492">
        <ele>62.485827</ele>
        <time>2025-03-21T14:41:56.603Z</time>
      </trkpt>
      <trkpt lat="49.008617" lon="2.198619">
        <ele>62.369270</ele>
        <time>2025-03-21T14:41:58.057Z</time>
      </trkpt>
      <trkpt lat="49.008674" lon="2.198728">
        <ele>62.280257</ele>
        <time>2025-03-21T14:41:59.205Z</time>
      </trkpt>
      <trkpt lat="49.008756" lon="2.198889">
        <ele>62.150098</ele>
        <time>2025-03-21T14:42:00.881Z</time>
      </trkpt>
      <trkpt lat="49.008811" lon="2.199057">
        <ele>62.030203</ele>
        <time>2025-03-21T14:42:02.422Z</time>
      </trkpt>
      <trkpt lat="49.008820" lon="2.199207">
        <ele>61.934021</ele>
        <time>2025-03-21T14:42:03.649Z</time>
      </trkpt>
      <trkpt lat="49.008840" lon="2.199154">
        <ele>61.894977</ele>
        <time>2025-03-21T14:42:04.174Z</time>
      </trkpt>
      <trkpt lat="49.008878" lon="2.199054">
        <ele>61.821181</ele>
        <time>2025-03-21T14:42:05.150Z</time>
      </trkpt>
      <trkpt lat="49.008919" lon="2.198947">
        <ele>61.742293</ele>
        <time>2025-03-21T14:42:06.188Z</time>
      </trkpt>
      <trkpt lat="49.008938" lon="2.198898">
        <ele>61.725713</ele>
        <time>2025-03-21T14:42:06.668Z</time>
      </trkpt>
      <trkpt lat="49.008965" lon="2.198826">
        <ele>61.701556</ele>
        <time>2025-03-21T14:42:07.325Z</time>
      </trkpt>
      <trkpt lat="49.008999" lon="2.198723">
        <ele>61.667970</ele>
        <time>2025-03-21T14:42:08.294Z</time>
      </trkpt>
      <trkpt lat="49.009027" lon="2.198609">
        <ele>61.632514</ele>
        <time>2025-03-21T14:42:09.264Z</time>
      </trkpt>
      <trkpt lat="49.009057" lon="2.198519">
        <ele>61.603108</ele>
        <time>2025-03-21T14:42:10.097Z</time>
      </trkpt>
      <trkpt lat="49.009109" lon="2.198356">
        <ele>61.550313</ele>
        <time>2025-03-21T14:42:11.523Z</time>
      </trkpt>
      <trkpt lat="49.009187" lon="2.198112">
        <ele>61.471252</ele>
        <time>2025-03-21T14:42:13.720Z</time>
      </trkpt>
      <trkpt lat="49.009333" lon="2.197684">
        <ele>61.330737</ele>
        <time>2025-03-21T14:42:17.668Z</time>
      </trkpt>
      <trkpt lat="49.009344" lon="2.197652">
        <ele>61.320214</ele>
        <time>2025-03-21T14:42:17.986Z</time>
      </trkpt>
      <trkpt lat="49.009353" lon="2.197622">
        <ele>61.310605</ele>
        <time>2025-03-21T14:42:18.262Z</time>
      </trkpt>
      <trkpt lat="49.009459" lon="2.197273">
        <ele>61.198583</ele>
        <time>2025-03-21T14:42:21.518Z</time>
      </trkpt>
      <trkpt lat="49.009695" lon="2.196383">
        <ele>60.994966</ele>
        <time>2025-03-21T14:42:31.012Z</time>
      </trkpt>
      <trkpt lat="49.009870" lon="2.195785">
        <ele>61.388061</ele>
        <time>2025-03-21T14:42:38.582Z</time>
      </trkpt>
      <trkpt lat="49.010057" lon="2.195749">
        <ele>61.560565</ele>
        <time>2025-03-21T14:42:42.271Z</time>
      </trkpt>
      <trkpt lat="49.010222" lon="2.195296">
        <ele>61.871621</ele>
        <time>2025-03-21T14:42:48.979Z</time>
      </trkpt>
      <trkpt lat="49.010439" lon="2.194726">
        <ele>62.267255</ele>
        <time>2025-03-21T14:42:57.396Z</time>
      </trkpt>
      <trkpt lat="49.010654" lon="2.194221">
        <ele>62.621707</ele>
        <time>2025-03-21T14:43:05.056Z</time>
      </trkpt>
      <trkpt lat="49.010814" lon="2.193993">
        <ele>62.786113</ele>
        <time>2025-03-21T14:43:09.275Z</time>
      </trkpt>
      <trkpt lat="49.010968" lon="2.193850">
        <ele>62.921473</ele>
        <time>2025-03-21T14:43:12.717Z</time>
      </trkpt>
      <trkpt lat="49.011172" lon="2.193723">
        <ele>63.086888</ele>
        <time>2025-03-21T14:43:16.819Z</time>
      </trkpt>
      <trkpt lat="49.011904" lon="2.193424">
        <ele>63.655767</ele>
        <time>2025-03-21T14:43:29.976Z</time>
      </trkpt>
      <trkpt lat="49.012074" lon="2.193363">
        <ele>63.786870</ele>
        <time>2025-03-21T14:43:32.950Z</time>
      </trkpt>
      <trkpt lat="49.013135" lon="2.192949">
        <ele>64.096356</ele>
        <time>2025-03-21T14:43:50.748Z</time>
      </trkpt>
      <trkpt lat="49.013479" lon="2.191917">
        <ele>64.229469</ele>
        <time>2025-03-21T14:44:06.422Z</time>
      </trkpt>
      <trkpt lat="49.014151" lon="2.189910">
        <ele>63.259588</ele>
        <time>2025-03-21T14:44:34.322Z</time>
      </trkpt>
      <trkpt lat="49.014768" lon="2.188047">
        <ele>62.908263</ele>
        <time>2025-03-21T14:44:56.335Z</time>
      </trkpt>
      <trkpt lat="49.015251" lon="2.186664">
        <ele>62.908263</ele>
        <time>2025-03-21T14:45:07.226Z</time>
      </trkpt>
      <trkpt lat="49.015044" lon="2.186437">
        <ele>62.908263</ele>
        <time>2025-03-21T14:45:10.025Z</time>
      </trkpt>
      <trkpt lat="49.014965" lon="2.186358">
        <ele>62.908263</ele>
        <time>2025-03-21T14:45:11.074Z</time>
      </trkpt>
    </trkseg>
  </trk>
</gpx>